Aviation Digital Data Service (ADDS)

Output produced by METARs form (1230 UTC 26 March 2019)
found at http://www.aviationweather.gov/metar/data/
 
DTTA 261200Z 29017KT 9999 FEW026 20/06 Q1014
TAF DTTA 261100Z 2612/2712 26014KT 9999 SCT026 
     PROB40 
     TEMPO 2614/2620 27017G29KT 
     BECMG 2708/2910 33015KT 9999 SCT020 SCT026
       
DTTR 261200Z 16008KT CAVOK 28/01 Q1017
DTTG 261200Z 26008KT 9999 FEW030 23/02 Q1015 NOSIG
TAF DTTG 260900Z 2610/2619 25010KT 9999 FEW030
       
DTTF 261200Z 23013KT 190V250 9999 SCT026 22/03 Q1014 NOSIG
TAF DTTF 260900Z 2610/2619 19008KT 8000 FEW026 
     BECMG 2612/2614 24013KT 
     PROB30 
     TEMPO 2615/2619 -TS RA FEW030CB
       
DTMB 261100Z 35009KT CAVOK 18/07 Q1015
TAF DTMB 261100Z 2612/2712 34010KT CAVOK 
     BECMG 2614/2616 09008KT 9999 SCT026 
     PROB30 2617/2706 -TSRA BKN026 FEW030CB 
     BECMG 2700/2702 VRB03KT 7000 SCT020 SCT026 
     TEMPO 2703/2708 4000 -RA 
     BECMG 2707/2709 29008KT
       
DTTZ 261200Z 19011KT 150V220 9999 SCT033 24/01 Q1015 NOSIG
TAF DTTZ 261100Z 2612/2712 15007KT CAVOK 
     BECMG 2612/2614 24015KT 
     BECMG 2619/2621 03004KT 
     BECMG 2701/2703 03015KT 8000 SCT026 
     PROB40 
     TEMPO 2702/2709 4000 -TS RA FEW030CB
       
DTTD 261200Z 27004KT CAVOK 26/M00 Q1016
DTTB 261200Z 27020KT 9999 SCT020 18/06 Q1014
DTKA 261200Z 27020KT 9999 SCT020 17/07 Q1016 NOSIG
TAF DTKA 260900Z 2610/2619 27014KT 9999 SCT020 
     PROB40 
     TEMPO 2610/2615 26015G25KT
       
DTTX 261200Z 15010KT 110V170 CAVOK 21/07 Q1015 NOSIG
TAF DTTX 261100Z 2612/2712 15012KT CAVOK 
     PROB40 2617/2622 4000 -TS RA FEW030CB 
     BECMG 2620/2622 06005KT 
     BECMG 2701/2703 03014KT 9999 SCT026 
     TEMPO 2703/2712 4000 TS SHRA FEW030CB
       
DTTJ 261200Z 32004KT 280V030 CAVOK 22/01 Q1015 NOSIG
TAF DTTJ 261100Z 2612/2712 27008KT CAVOK 
     BECMG 2613/2615 12012KT 
     BECMG 2701/2703 02017KT 9999 SCT020 
     TEMPO 2707/2712 03017G27KT 4000 -TS SHRA BKN020 FEW026CB